Time;durP1;ratioP1;P1;durP2;ratioP2;P2;SDS_P1;SDS_P2;PMS_P1;PMS_P2;Temp;Humidity;BMP_temperature;BMP_pressure;BME280_temperature;BME280_humidity;BME280_pressure;Samples;Min_cycle;Max_cycle;Signal;HPM_P1;HPM_P2
2023/03/22 00:00:54;;;;;;;11.90;3.53;;;;;;;;;;5043470;28;20039;-74
2023/03/22 00:03:21;;;;;;;10.30;2.58;;;;;;;;;;5061280;28;20017;-74
2023/03/22 00:05:47;;;;;;;14.50;3.10;;;;;;;;;;5043776;28;20091;-75
2023/03/22 00:08:14;;;;;;;12.77;3.75;;;;;;;;;;5043662;28;20049;-76
2023/03/22 00:10:41;;;;;;;11.32;2.83;;;;;;;;;;5040669;28;20334;-76
2023/03/22 00:13:09;;;;;;;11.35;2.63;;;;;;;;;;5057712;28;20032;-75
2023/03/22 00:15:36;;;;;;;10.27;3.28;;;;;;;;;;5042004;28;20061;-74
2023/03/22 00:18:04;;;;;;;10.70;2.97;;;;;;;;;;5037810;28;20024;-75
2023/03/22 00:20:32;;;;;;;18.40;2.85;;;;;;;;;;5040580;28;20473;-74
2023/03/22 00:22:58;;;;;;;11.38;2.72;;;;;;;;;;5041285;28;20032;-76
2023/03/22 00:25:24;;;;;;;14.15;2.65;;;;;;;;;;5042593;28;20033;-74
2023/03/22 00:27:51;;;;;;;21.02;2.53;;;;;;;;;;5041462;28;20032;-74
2023/03/22 00:30:17;;;;;;;12.27;2.47;;;;;;;;;;5043803;28;20103;-74
2023/03/22 00:32:43;;;;;;;9.98;1.88;;;;;;;;;;5058161;28;20029;-74
2023/03/22 00:35:09;;;;;;;11.25;3.10;;;;;;;;;;5043653;28;20033;-74
2023/03/22 00:37:37;;;;;;;15.23;3.58;;;;;;;;;;5041299;28;20025;-74
2023/03/22 00:40:10;;;;;;;11.98;2.22;;;;;;;;;;5040904;28;20024;-75
2023/03/22 00:42:39;;;;;;;10.90;2.17;;;;;;;;;;5045001;28;20462;-73
2023/03/22 00:45:06;;;;;;;25.40;8.07;;;;;;;;;;5045299;28;20051;-76
2023/03/22 00:47:33;;;;;;;54.10;29.15;;;;;;;;;;5044516;28;20454;-74
2023/03/22 00:50:06;;;;;;;17.15;3.05;;;;;;;;;;5044805;28;20024;-73
2023/03/22 00:52:32;;;;;;;10.55;2.25;;;;;;;;;;5039821;28;20025;-73
2023/03/22 00:54:59;;;;;;;12.43;2.22;;;;;;;;;;5037813;28;20049;-73
2023/03/22 00:57:25;;;;;;;13.05;2.50;;;;;;;;;;5042966;28;20028;-74
2023/03/22 00:59:52;;;;;;;14.18;2.13;;;;;;;;;;5042074;28;20025;-74
2023/03/22 01:02:19;;;;;;;11.82;1.95;;;;;;;;;;5041545;28;20090;-75
2023/03/22 01:04:46;;;;;;;9.15;2.35;;;;;;;;;;5043260;28;20033;-74
2023/03/22 01:07:16;;;;;;;11.40;2.47;;;;;;;;;;5042552;28;20128;-75
2023/03/22 01:09:43;;;;;;;11.68;2.80;;;;;;;;;;5040296;28;20057;-75
2023/03/22 01:12:09;;;;;;;9.43;2.67;;;;;;;;;;5041362;28;20025;-74
2023/03/22 01:14:36;;;;;;;12.30;1.60;;;;;;;;;;5039181;28;20033;-74
2023/03/22 01:17:02;;;;;;;13.20;1.70;;;;;;;;;;5038491;28;20025;-74
2023/03/22 01:19:29;;;;;;;10.85;2.10;;;;;;;;;;5045408;28;20076;-74
2023/03/22 01:21:56;;;;;;;13.20;1.67;;;;;;;;;;5043142;28;20021;-75
2023/03/22 01:24:23;;;;;;;10.23;1.92;;;;;;;;;;5029000;28;20055;-74
2023/03/22 01:26:49;;;;;;;11.35;1.70;;;;;;;;;;5043863;28;20381;-74
2023/03/22 01:29:15;;;;;;;6.70;2.10;;;;;;;;;;5042810;28;20025;-73
2023/03/22 01:31:41;;;;;;;12.85;2.50;;;;;;;;;;5037922;28;20044;-73
2023/03/22 01:34:07;;;;;;;16.88;2.67;;;;;;;;;;5039238;28;20028;-75
2023/03/22 01:36:33;;;;;;;9.70;2.28;;;;;;;;;;5021747;28;20092;-73
2023/03/22 01:38:59;;;;;;;15.50;2.30;;;;;;;;;;5046452;28;20045;-73
2023/03/22 01:41:25;;;;;;;11.15;1.90;;;;;;;;;;5036331;28;20017;-73
2023/03/22 01:44:11;;;;;;;8.18;1.30;;;;;;;;;;5039544;28;20037;-74
2023/03/22 01:46:38;;;;;;;13.25;2.85;;;;;;;;;;5029545;28;20248;-73
2023/03/22 01:49:05;;;;;;;14.88;2.05;;;;;;;;;;5043306;28;20028;-73
2023/03/22 01:51:31;;;;;;;13.05;1.65;;;;;;;;;;5042045;28;20028;-73
2023/03/22 01:54:02;;;;;;;10.98;2.88;;;;;;;;;;5054966;28;20063;-73
2023/03/22 01:56:30;;;;;;;8.95;1.45;;;;;;;;;;5041940;28;20062;-73
2023/03/22 01:58:57;;;;;;;11.43;1.92;;;;;;;;;;5063231;28;20041;-74
2023/03/22 02:01:23;;;;;;;8.18;2.30;;;;;;;;;;5042700;28;20032;-73
2023/03/22 02:03:52;;;;;;;13.27;1.70;;;;;;;;;;5043550;28;20499;-73
2023/03/22 02:06:19;;;;;;;15.07;2.03;;;;;;;;;;5037009;28;20033;-73
2023/03/22 02:08:45;;;;;;;9.77;1.77;;;;;;;;;;5037293;28;20052;-74
2023/03/22 02:11:15;;;;;;;9.27;2.22;;;;;;;;;;5042974;28;20381;-74
2023/03/22 02:13:46;;;;;;;8.32;1.65;;;;;;;;;;5043318;28;20480;-74
2023/03/22 02:16:24;;;;;;;14.13;3.00;;;;;;;;;;5041806;28;20510;-74
2023/03/22 02:18:53;;;;;;;12.75;1.85;;;;;;;;;;5043053;28;20035;-73
2023/03/22 02:21:22;;;;;;;12.60;2.90;;;;;;;;;;5041951;28;20083;-73
2023/03/22 02:23:51;;;;;;;11.43;1.80;;;;;;;;;;5042349;28;20025;-73
2023/03/22 02:26:27;;;;;;;9.75;1.50;;;;;;;;;;5042257;28;20402;-73
2023/03/22 02:28:57;;;;;;;11.65;1.90;;;;;;;;;;5054003;28;20120;-73
2023/03/22 02:31:28;;;;;;;13.50;2.45;;;;;;;;;;5038130;28;20040;-73
2023/03/22 02:34:14;;;;;;;14.50;1.73;;;;;;;;;;5036525;28;20029;-73
2023/03/22 02:36:41;;;;;;;12.40;2.10;;;;;;;;;;5038415;28;20032;-73
2023/03/22 02:39:07;;;;;;;14.63;2.42;;;;;;;;;;5038705;28;20477;-73
2023/03/22 02:41:33;;;;;;;7.72;1.67;;;;;;;;;;5037857;28;20041;-73
2023/03/22 02:44:04;;;;;;;7.53;2.20;;;;;;;;;;5042992;28;20025;-73
2023/03/22 02:46:33;;;;;;;10.90;1.85;;;;;;;;;;5041805;28;20032;-73
2023/03/22 02:49:25;;;;;;;19.33;2.90;;;;;;;;;;5041048;28;20474;-73
2023/03/22 02:52:04;;;;;;;11.25;1.80;;;;;;;;;;5036495;28;20124;-73
2023/03/22 02:54:38;;;;;;;14.48;2.25;;;;;;;;;;5037288;28;20028;-73
2023/03/22 02:57:20;;;;;;;15.88;2.08;;;;;;;;;;5038909;28;20036;-74
2023/03/22 02:59:46;;;;;;;8.75;2.10;;;;;;;;;;5042809;28;20091;-73
2023/03/22 03:02:18;;;;;;;16.48;2.67;;;;;;;;;;5022472;28;20477;-74
2023/03/22 03:04:47;;;;;;;16.50;2.15;;;;;;;;;;5041632;28;20457;-74
2023/03/22 03:07:18;;;;;;;17.52;2.03;;;;;;;;;;5043978;28;20032;-74
2023/03/22 03:09:44;;;;;;;9.48;2.00;;;;;;;;;;5040254;28;20103;-74
2023/03/22 03:12:21;;;;;;;14.90;2.58;;;;;;;;;;5035962;28;20051;-74
2023/03/22 03:14:47;;;;;;;12.95;2.03;;;;;;;;;;5037882;28;20086;-74
2023/03/22 03:17:24;;;;;;;15.43;1.85;;;;;;;;;;5040006;28;20021;-73
2023/03/22 03:19:57;;;;;;;12.82;2.78;;;;;;;;;;5043839;28;20025;-74
2023/03/22 03:22:38;;;;;;;11.25;1.90;;;;;;;;;;5053746;28;20029;-73
2023/03/22 03:25:08;;;;;;;17.85;3.20;;;;;;;;;;5063121;28;20044;-74
2023/03/22 03:27:42;;;;;;;16.67;2.97;;;;;;;;;;5043747;28;20025;-73
2023/03/22 03:30:13;;;;;;;14.80;2.25;;;;;;;;;;5041472;28;20098;-74
2023/03/22 03:32:51;;;;;;;12.07;2.17;;;;;;;;;;5041784;28;20560;-73
2023/03/22 03:35:22;;;;;;;13.95;2.05;;;;;;;;;;5046658;28;20125;-73
2023/03/22 03:37:56;;;;;;;14.32;2.30;;;;;;;;;;5038370;28;20114;-73
2023/03/22 03:40:24;;;;;;;12.27;2.65;;;;;;;;;;5042612;28;20472;-73
2023/03/22 03:42:51;;;;;;;12.70;3.28;;;;;;;;;;5045041;28;20017;-73
2023/03/22 03:45:18;;;;;;;10.05;2.47;;;;;;;;;;5048444;28;20033;-73
2023/03/22 03:47:46;;;;;;;17.83;2.40;;;;;;;;;;5039255;28;20021;-73
2023/03/22 03:50:15;;;;;;;12.55;2.72;;;;;;;;;;5040514;28;20039;-74
2023/03/22 03:52:42;;;;;;;17.65;2.72;;;;;;;;;;5045449;28;20474;-73
2023/03/22 03:55:08;;;;;;;14.25;2.85;;;;;;;;;;5045461;28;20033;-74
2023/03/22 03:57:35;;;;;;;13.02;2.63;;;;;;;;;;5046231;28;20029;-73
2023/03/22 04:00:01;;;;;;;11.70;2.33;;;;;;;;;;5042868;28;20021;-73
2023/03/22 04:02:27;;;;;;;10.82;2.30;;;;;;;;;;5047469;28;20032;-73
2023/03/22 04:04:53;;;;;;;12.88;2.80;;;;;;;;;;5043725;28;20033;-74
2023/03/22 04:07:19;;;;;;;13.57;2.80;;;;;;;;;;5026808;28;20021;-74
2023/03/22 04:09:45;;;;;;;13.43;2.58;;;;;;;;;;5028436;28;20053;-74
2023/03/22 04:12:11;;;;;;;13.43;2.30;;;;;;;;;;5043230;28;20393;-74
2023/03/22 04:14:37;;;;;;;11.88;2.72;;;;;;;;;;5043406;28;20374;-73
2023/03/22 04:17:03;;;;;;;12.30;2.55;;;;;;;;;;5044906;28;20127;-73
2023/03/22 04:19:30;;;;;;;12.52;3.13;;;;;;;;;;5037648;28;21401;-73
2023/03/22 04:21:56;;;;;;;10.30;2.70;;;;;;;;;;5053283;28;20095;-73
2023/03/22 04:24:22;;;;;;;19.50;3.28;;;;;;;;;;5038338;28;20041;-72
2023/03/22 04:26:48;;;;;;;11.10;2.95;;;;;;;;;;5045630;28;20033;-73
2023/03/22 04:29:14;;;;;;;9.80;2.92;;;;;;;;;;5038064;28;20037;-73
2023/03/22 04:31:41;;;;;;;9.05;3.10;;;;;;;;;;5043865;28;20084;-73
2023/03/22 04:34:07;;;;;;;13.13;3.28;;;;;;;;;;5040806;28;20079;-73
2023/03/22 04:36:38;;;;;;;9.75;3.38;;;;;;;;;;5037239;28;20029;-73
2023/03/22 04:39:05;;;;;;;10.20;3.55;;;;;;;;;;5042073;28;20096;-74
2023/03/22 04:41:32;;;;;;;12.70;4.60;;;;;;;;;;5039367;28;20021;-73
2023/03/22 04:44:02;;;;;;;10.02;4.15;;;;;;;;;;5046633;28;20029;-73
2023/03/22 04:46:28;;;;;;;10.73;4.05;;;;;;;;;;5043340;28;20135;-73
2023/03/22 04:48:54;;;;;;;14.43;3.83;;;;;;;;;;5044231;28;20041;-73
2023/03/22 04:51:20;;;;;;;10.73;4.15;;;;;;;;;;5043818;28;20048;-73
2023/03/22 04:53:46;;;;;;;15.95;4.93;;;;;;;;;;5043304;28;20029;-73
2023/03/22 04:56:13;;;;;;;10.77;4.07;;;;;;;;;;5040957;28;20033;-73
2023/03/22 04:58:41;;;;;;;15.65;5.10;;;;;;;;;;5048484;28;20028;-73
2023/03/22 05:01:08;;;;;;;12.43;5.10;;;;;;;;;;5044678;28;20025;-74
2023/03/22 05:03:35;;;;;;;15.48;4.65;;;;;;;;;;5043687;28;20036;-71
2023/03/22 05:06:02;;;;;;;14.73;4.95;;;;;;;;;;5046190;28;20041;-74
2023/03/22 05:08:29;;;;;;;11.45;5.30;;;;;;;;;;5039111;28;20108;-74
2023/03/22 05:10:56;;;;;;;14.40;5.40;;;;;;;;;;5007554;28;20425;-74
2023/03/22 05:13:23;;;;;;;10.77;5.93;;;;;;;;;;5025366;28;20032;-74
2023/03/22 05:15:50;;;;;;;14.95;5.68;;;;;;;;;;5022931;28;20033;-71
2023/03/22 05:18:16;;;;;;;17.40;6.97;;;;;;;;;;5024379;28;20025;-74
2023/03/22 05:20:43;;;;;;;18.13;6.85;;;;;;;;;;5018130;28;20033;-74
2023/03/22 05:23:09;;;;;;;16.95;6.72;;;;;;;;;;5012314;28;20548;-74
2023/03/22 05:25:37;;;;;;;14.30;7.05;;;;;;;;;;5025335;28;20409;-73
2023/03/22 05:28:03;;;;;;;16.20;7.68;;;;;;;;;;5014864;28;20029;-73
2023/03/22 05:30:29;;;;;;;14.02;6.78;;;;;;;;;;5024294;28;20503;-73
2023/03/22 05:33:03;;;;;;;24.00;8.95;;;;;;;;;;5023866;28;20083;-73
2023/03/22 05:35:30;;;;;;;17.88;8.07;;;;;;;;;;5026240;28;20351;-73
2023/03/22 05:37:57;;;;;;;17.67;8.25;;;;;;;;;;5021287;28;20056;-74
2023/03/22 05:40:23;;;;;;;18.25;8.48;;;;;;;;;;5026243;28;20021;-73
2023/03/22 05:42:49;;;;;;;19.88;8.55;;;;;;;;;;5024850;28;20026;-73
2023/03/22 05:45:15;;;;;;;24.42;10.40;;;;;;;;;;5021856;28;20136;-74
2023/03/22 05:47:42;;;;;;;17.88;9.02;;;;;;;;;;5022782;28;20109;-74
2023/03/22 05:50:11;;;;;;;15.50;8.88;;;;;;;;;;5009048;28;20062;-75
2023/03/22 05:52:38;;;;;;;21.73;10.02;;;;;;;;;;5022502;28;20092;-71
2023/03/22 05:55:05;;;;;;;15.02;9.85;;;;;;;;;;5019565;28;20034;-74
2023/03/22 05:57:31;;;;;;;17.63;9.93;;;;;;;;;;5018318;28;20033;-74
2023/03/22 05:59:57;;;;;;;21.58;10.02;;;;;;;;;;5025496;28;20314;-74
2023/03/22 06:02:25;;;;;;;14.07;8.75;;;;;;;;;;5024619;28;20045;-73
2023/03/22 06:04:51;;;;;;;19.45;9.65;;;;;;;;;;5020765;28;20084;-74
2023/03/22 06:07:18;;;;;;;20.83;9.43;;;;;;;;;;5025000;28;20033;-71
2023/03/22 06:09:44;;;;;;;17.15;9.35;;;;;;;;;;5030105;28;21242;-71
2023/03/22 06:12:10;;;;;;;20.90;9.32;;;;;;;;;;5042561;28;20070;-73
2023/03/22 06:14:37;;;;;;;21.45;10.40;;;;;;;;;;5039324;28;20044;-73
2023/03/22 06:17:03;;;;;;;18.98;9.40;;;;;;;;;;5031721;28;21392;-74
2023/03/22 06:19:29;;;;;;;20.95;9.77;;;;;;;;;;5039142;28;20024;-75
2023/03/22 06:21:56;;;;;;;20.25;10.02;;;;;;;;;;5033382;28;20785;-75
2023/03/22 06:24:22;;;;;;;21.48;9.50;;;;;;;;;;5037137;28;20032;-75
2023/03/22 06:26:48;;;;;;;18.95;11.90;;;;;;;;;;5036744;28;20075;-74
2023/03/22 06:29:14;;;;;;;17.55;9.80;;;;;;;;;;5048921;28;20029;-74
2023/03/22 06:31:40;;;;;;;25.48;11.55;;;;;;;;;;5046638;28;20033;-69
2023/03/22 06:34:06;;;;;;;17.95;10.27;;;;;;;;;;5043635;28;20029;-74
2023/03/22 06:36:32;;;;;;;20.58;11.75;;;;;;;;;;5039119;28;20022;-74
2023/03/22 06:39:01;;;;;;;18.90;10.35;;;;;;;;;;5049711;28;20393;-75
2023/03/22 06:41:27;;;;;;;23.90;10.20;;;;;;;;;;5042457;28;20466;-74
2023/03/22 06:43:53;;;;;;;17.52;10.07;;;;;;;;;;5049398;28;20033;-74
2023/03/22 06:46:19;;;;;;;20.90;10.60;;;;;;;;;;5047379;28;20079;-73
2023/03/22 06:48:45;;;;;;;21.25;9.85;;;;;;;;;;5049604;28;20469;-73
2023/03/22 06:51:11;;;;;;;16.08;9.57;;;;;;;;;;5050685;28;20017;-74
2023/03/22 06:53:37;;;;;;;18.30;9.13;;;;;;;;;;5050944;28;20394;-74
2023/03/22 06:56:04;;;;;;;19.50;9.63;;;;;;;;;;5049105;28;20382;-74
2023/03/22 06:58:30;;;;;;;22.60;9.63;;;;;;;;;;5044938;28;20373;-74
2023/03/22 07:00:56;;;;;;;19.85;9.38;;;;;;;;;;5040431;28;20032;-74
2023/03/22 07:03:23;;;;;;;14.32;8.75;;;;;;;;;;5046157;28;20029;-74
2023/03/22 07:05:49;;;;;;;17.10;8.38;;;;;;;;;;5036370;28;20508;-74
2023/03/22 07:08:15;;;;;;;17.15;9.20;;;;;;;;;;5041815;28;20100;-76
2023/03/22 07:10:42;;;;;;;16.70;8.50;;;;;;;;;;5034188;28;20486;-75
2023/03/22 07:13:09;;;;;;;17.58;7.55;;;;;;;;;;5039102;28;20370;-73
2023/03/22 07:15:35;;;;;;;18.05;8.63;;;;;;;;;;5037181;28;20489;-74
2023/03/22 07:18:01;;;;;;;20.48;8.40;;;;;;;;;;5045571;28;20075;-75
2023/03/22 07:20:28;;;;;;;15.65;8.35;;;;;;;;;;5044362;28;20036;-74
2023/03/22 07:22:54;;;;;;;15.52;8.32;;;;;;;;;;5045978;28;20029;-74
2023/03/22 07:25:20;;;;;;;19.50;8.10;;;;;;;;;;5046178;28;20089;-73
2023/03/22 07:27:46;;;;;;;15.43;7.72;;;;;;;;;;5041401;28;20083;-74
2023/03/22 07:30:13;;;;;;;20.17;8.20;;;;;;;;;;5040792;28;20021;-75
2023/03/22 07:32:44;;;;;;;15.60;7.50;;;;;;;;;;5035432;28;20033;-74
2023/03/22 07:35:11;;;;;;;18.17;7.80;;;;;;;;;;5036367;28;20033;-73
2023/03/22 07:37:37;;;;;;;17.45;7.80;;;;;;;;;;5026062;28;20112;-70
2023/03/22 07:40:04;;;;;;;15.50;8.13;;;;;;;;;;5023102;28;20389;-75
2023/03/22 07:42:30;;;;;;;16.45;7.00;;;;;;;;;;5044567;28;20163;-75
2023/03/22 07:45:03;;;;;;;18.23;8.02;;;;;;;;;;5054102;28;22155;-74
2023/03/22 07:47:29;;;;;;;;;;;;;;;;;;5044949;28;20044;-73
2023/03/22 07:49:55;;;;;;;21.00;7.18;;;;;;;;;;5060227;28;20430;-73
2023/03/22 07:52:21;;;;;;;13.90;6.43;;;;;;;;;;5040922;28;20033;-73
2023/03/22 07:54:47;;;;;;;21.63;7.20;;;;;;;;;;5036752;28;20347;-73
2023/03/22 07:57:14;;;;;;;15.88;6.82;;;;;;;;;;5027673;28;20028;-74
2023/03/22 07:59:43;;;;;;;11.63;6.63;;;;;;;;;;5030898;28;20022;-74
2023/03/22 08:02:12;;;;;;;12.82;7.25;;;;;;;;;;5037608;28;20454;-75
2023/03/22 08:04:38;;;;;;;14.65;6.57;;;;;;;;;;5034777;28;20087;-74
2023/03/22 08:07:04;;;;;;;15.63;6.70;;;;;;;;;;5023456;28;20052;-74
2023/03/22 08:09:30;;;;;;;15.45;6.13;;;;;;;;;;5037209;28;20069;-75
2023/03/22 08:11:57;;;;;;;14.77;6.55;;;;;;;;;;5037728;28;20025;-73
2023/03/22 08:14:23;;;;;;;25.80;7.80;;;;;;;;;;5036911;28;20033;-74
2023/03/22 08:16:49;;;;;;;17.20;7.07;;;;;;;;;;5037764;28;20045;-75
2023/03/22 08:19:16;;;;;;;14.25;6.30;;;;;;;;;;5035651;28;20022;-74
2023/03/22 08:21:42;;;;;;;17.05;6.82;;;;;;;;;;5040670;28;20036;-70
2023/03/22 08:24:08;;;;;;;13.80;5.88;;;;;;;;;;5038298;28;20037;-71
2023/03/22 08:26:34;;;;;;;14.10;6.22;;;;;;;;;;5037846;28;20123;-71
2023/03/22 08:29:00;;;;;;;15.70;5.65;;;;;;;;;;5036095;28;20021;-71
2023/03/22 08:31:27;;;;;;;12.77;5.05;;;;;;;;;;5036780;28;20026;-70
2023/03/22 08:33:53;;;;;;;13.13;5.97;;;;;;;;;;5038395;28;20507;-71
2023/03/22 08:36:22;;;;;;;11.77;5.25;;;;;;;;;;5032529;28;20064;-71
2023/03/22 08:38:48;;;;;;;14.73;5.05;;;;;;;;;;5041337;28;20013;-70
2023/03/22 08:44:06;;;;;;;17.80;5.63;;;;;;;;;;5040451;28;20044;-71
2023/03/22 08:46:32;;;;;;;17.35;4.70;;;;;;;;;;5032560;28;20031;-70
2023/03/22 08:49:02;;;;;;;16.27;5.13;;;;;;;;;;5039056;28;20021;-73
2023/03/22 08:51:30;;;;;;;15.15;5.22;;;;;;;;;;5014608;28;20063;-73
2023/03/22 08:53:58;;;;;;;11.57;4.93;;;;;;;;;;5060217;28;20060;-73
2023/03/22 08:56:26;;;;;;;15.60;5.35;;;;;;;;;;5060969;28;20476;-73
2023/03/22 08:58:52;;;;;;;16.85;5.00;;;;;;;;;;5035061;28;20029;-73
2023/03/22 09:01:19;;;;;;;16.10;5.20;;;;;;;;;;5040095;28;20186;-72
2023/03/22 09:03:46;;;;;;;12.07;4.25;;;;;;;;;;5034182;28;20028;-72
2023/03/22 09:06:13;;;;;;;16.45;4.68;;;;;;;;;;5043693;28;20385;-74
2023/03/22 09:08:40;;;;;;;13.75;4.97;;;;;;;;;;5037670;28;20555;-73
2023/03/22 09:11:10;;;;;;;13.00;3.72;;;;;;;;;;5034213;28;20511;-73
2023/03/22 09:13:36;;;;;;;16.77;3.72;;;;;;;;;;5041236;28;20372;-71
2023/03/22 09:16:03;;;;;;;13.68;5.30;;;;;;;;;;5032793;28;20052;-72
2023/03/22 09:18:29;;;;;;;15.85;3.75;;;;;;;;;;5048989;28;20037;-71
2023/03/22 09:20:55;;;;;;;14.02;3.75;;;;;;;;;;5051493;28;20083;-72
2023/03/22 09:23:21;;;;;;;12.73;4.22;;;;;;;;;;5046061;28;20037;-71
2023/03/22 09:25:48;;;;;;;7.68;3.78;;;;;;;;;;5056655;28;20040;-73
2023/03/22 09:28:16;;;;;;;13.13;3.70;;;;;;;;;;5055172;28;20463;-72
2023/03/22 09:30:43;;;;;;;11.27;5.30;;;;;;;;;;5030279;28;20067;-73
2023/03/22 09:33:09;;;;;;;20.63;3.95;;;;;;;;;;5043922;28;20116;-73
2023/03/22 09:35:40;;;;;;;13.98;4.55;;;;;;;;;;5049865;28;20504;-73
2023/03/22 09:38:06;;;;;;;17.20;3.50;;;;;;;;;;5044868;28;20028;-73
2023/03/22 09:40:33;;;;;;;22.08;4.07;;;;;;;;;;5066547;28;20393;-72
2023/03/22 09:43:01;;;;;;;16.13;4.43;;;;;;;;;;5049915;28;20029;-73
2023/03/22 09:45:36;;;;;;;13.02;4.40;;;;;;;;;;5043187;28;20041;-72
2023/03/22 09:48:04;;;;;;;14.75;3.78;;;;;;;;;;5052983;28;20100;-73
2023/03/22 09:50:32;;;;;;;8.38;3.08;;;;;;;;;;5049857;28;20071;-73
2023/03/22 09:52:59;;;;;;;10.88;2.80;;;;;;;;;;5044899;28;20087;-73
2023/03/22 09:55:44;;;;;;;16.83;2.75;;;;;;;;;;5044093;28;20086;-73
2023/03/22 09:58:26;;;;;;;14.70;3.35;;;;;;;;;;5050097;28;20029;-73
2023/03/22 10:00:57;;;;;;;19.83;3.75;;;;;;;;;;5040336;28;20477;-74
2023/03/22 10:03:44;;;;;;;9.73;2.30;;;;;;;;;;5040190;28;20465;-74
2023/03/22 10:06:23;;;;;;;15.32;3.67;;;;;;;;;;5044455;28;20048;-74
2023/03/22 10:08:50;;;;;;;19.55;3.60;;;;;;;;;;5040095;28;20404;-73
2023/03/22 10:11:19;;;;;;;16.52;3.17;;;;;;;;;;5061522;28;20039;-74
2023/03/22 10:13:54;;;;;;;9.02;2.65;;;;;;;;;;5045539;28;20021;-73
2023/03/22 10:16:27;;;;;;;10.25;2.75;;;;;;;;;;5049489;28;20037;-75
2023/03/22 10:18:56;;;;;;;17.70;3.42;;;;;;;;;;5063449;28;20381;-73
2023/03/22 10:21:22;;;;;;;17.60;5.47;;;;;;;;;;5043280;28;20107;-73
2023/03/22 10:24:09;;;;;;;34.15;15.00;;;;;;;;;;5042624;28;20299;-72
2023/03/22 10:26:39;;;;;;;13.50;3.95;;;;;;;;;;5048168;28;20040;-72
2023/03/22 10:29:21;;;;;;;9.45;2.65;;;;;;;;;;5047249;28;20021;-73
2023/03/22 10:31:48;;;;;;;10.83;3.60;;;;;;;;;;5041787;28;20143;-73
2023/03/22 10:34:14;;;;;;;9.57;3.30;;;;;;;;;;5047076;28;20083;-72
2023/03/22 10:36:40;;;;;;;11.13;3.80;;;;;;;;;;5063961;28;20029;-72
2023/03/22 10:39:15;;;;;;;11.73;4.28;;;;;;;;;;5047768;28;20033;-73
2023/03/22 10:41:41;;;;;;;14.93;5.22;;;;;;;;;;5048820;28;20017;-73
2023/03/22 10:44:08;;;;;;;16.83;3.65;;;;;;;;;;5048987;28;20029;-73
2023/03/22 10:46:38;;;;;;;12.43;2.95;;;;;;;;;;5043589;28;20540;-72
2023/03/22 10:49:06;;;;;;;11.05;3.70;;;;;;;;;;5052930;28;20029;-72
2023/03/22 10:51:35;;;;;;;7.68;2.92;;;;;;;;;;5066270;28;20520;-73
2023/03/22 10:54:02;;;;;;;8.38;2.88;;;;;;;;;;5050329;28;20044;-73
2023/03/22 10:56:28;;;;;;;15.43;3.35;;;;;;;;;;5048756;28;20040;-72
2023/03/22 10:58:56;;;;;;;7.55;2.35;;;;;;;;;;5049411;28;20436;-72
2023/03/22 11:01:36;;;;;;;13.45;4.97;;;;;;;;;;5063481;28;20445;-72
2023/03/22 11:04:07;;;;;;;7.47;2.45;;;;;;;;;;5045017;28;20059;-70
2023/03/22 11:06:39;;;;;;;11.75;3.10;;;;;;;;;;5058370;28;20036;-73
2023/03/22 11:09:19;;;;;;;9.15;2.53;;;;;;;;;;5032952;28;20060;-74
2023/03/22 11:11:49;;;;;;;6.25;2.50;;;;;;;;;;5056800;28;20527;-73
2023/03/22 11:14:16;;;;;;;11.43;3.92;;;;;;;;;;5035612;28;20453;-73
2023/03/22 11:16:50;;;;;;;11.77;3.28;;;;;;;;;;5048909;28;20037;-73
2023/03/22 11:19:27;;;;;;;9.73;3.03;;;;;;;;;;5039680;28;20106;-72
2023/03/22 11:21:57;;;;;;;9.65;2.60;;;;;;;;;;5038668;28;20029;-72
2023/03/22 11:24:27;;;;;;;12.93;2.90;;;;;;;;;;5034381;28;20472;-73
2023/03/22 11:27:14;;;;;;;10.15;2.38;;;;;;;;;;5054806;28;20072;-74
2023/03/22 11:30:00;;;;;;;11.93;2.83;;;;;;;;;;5037607;28;20021;-73
2023/03/22 11:32:29;;;;;;;7.00;2.35;;;;;;;;;;5039574;28;20025;-74
2023/03/22 11:35:00;;;;;;;10.30;3.03;;;;;;;;;;5058748;28;20474;-73
2023/03/22 11:37:34;;;;;;;8.43;3.28;;;;;;;;;;5053608;28;20025;-73
2023/03/22 11:40:03;;;;;;;14.02;4.88;;;;;;;;;;5038775;28;20040;-75
2023/03/22 11:42:32;;;;;;;16.10;4.22;;;;;;;;;;5043630;28;20062;-72
2023/03/22 11:45:00;;;;;;;18.58;5.40;;;;;;;;;;5055754;28;20452;-74
2023/03/22 11:47:30;;;;;;;9.35;3.83;;;;;;;;;;5044986;28;20528;-73
2023/03/22 11:49:56;;;;;;;8.45;3.13;;;;;;;;;;5061099;28;20021;-74
2023/03/22 11:52:26;;;;;;;5.82;2.58;;;;;;;;;;5043966;28;20035;-73
2023/03/22 11:54:53;;;;;;;10.52;3.78;;;;;;;;;;5061614;28;20037;-73
2023/03/22 11:57:45;;;;;;;10.02;2.80;;;;;;;;;;5053823;28;20410;-72
2023/03/22 12:00:26;;;;;;;6.65;2.10;;;;;;;;;;5037109;28;20037;-75
2023/03/22 12:03:01;;;;;;;12.40;2.80;;;;;;;;;;5060347;28;20028;-72
2023/03/22 12:05:32;;;;;;;8.60;3.30;;;;;;;;;;5048251;28;20120;-73
2023/03/22 12:08:03;;;;;;;12.43;3.20;;;;;;;;;;5051578;28;20501;-73
2023/03/22 12:10:37;;;;;;;9.63;3.10;;;;;;;;;;5039592;28;20046;-73
2023/03/22 12:13:11;;;;;;;16.27;2.65;;;;;;;;;;5040417;28;20020;-72
2023/03/22 12:15:47;;;;;;;10.85;3.42;;;;;;;;;;5066802;28;20029;-72
2023/03/22 12:18:26;;;;;;;19.20;3.50;;;;;;;;;;5063384;28;20025;-73
2023/03/22 12:20:53;;;;;;;9.30;2.15;;;;;;;;;;5051158;28;20040;-72
2023/03/22 12:23:20;;;;;;;11.00;2.60;;;;;;;;;;5051644;28;20089;-73
2023/03/22 12:25:51;;;;;;;9.70;2.80;;;;;;;;;;5045803;28;20040;-73
2023/03/22 12:28:19;;;;;;;8.90;2.50;;;;;;;;;;5051704;28;20032;-72
2023/03/22 12:30:50;;;;;;;15.13;3.47;;;;;;;;;;5053102;28;20032;-72
2023/03/22 12:33:22;;;;;;;9.23;2.65;;;;;;;;;;5068054;28;20031;-73
2023/03/22 12:35:49;;;;;;;7.15;2.67;;;;;;;;;;5066621;28;20489;-73
2023/03/22 12:38:19;;;;;;;10.73;3.28;;;;;;;;;;5050604;28;20103;-73
2023/03/22 12:40:45;;;;;;;13.48;4.25;;;;;;;;;;5049391;28;20078;-73
2023/03/22 12:43:21;;;;;;;20.02;5.10;;;;;;;;;;5038823;28;20052;-73
2023/03/22 12:45:52;;;;;;;10.43;4.05;;;;;;;;;;5043648;28;20060;-73
2023/03/22 12:48:39;;;;;;;17.52;4.30;;;;;;;;;;5051689;28;20115;-73
2023/03/22 12:51:06;;;;;;;12.52;3.95;;;;;;;;;;5050607;28;20107;-74
2023/03/22 12:53:41;;;;;;;13.20;4.18;;;;;;;;;;5050587;28;20017;-74
2023/03/22 12:56:08;;;;;;;13.95;4.55;;;;;;;;;;5046089;28;20068;-73
2023/03/22 12:58:34;;;;;;;12.68;4.85;;;;;;;;;;5046827;28;20059;-74
2023/03/22 13:01:18;;;;;;;10.30;4.07;;;;;;;;;;5045572;28;20070;-74
2023/03/22 13:03:47;;;;;;;10.88;4.07;;;;;;;;;;5051478;28;20306;-73
2023/03/22 13:06:29;;;;;;;9.73;4.22;;;;;;;;;;5052736;28;20025;-73
2023/03/22 13:09:01;;;;;;;10.57;3.22;;;;;;;;;;5067637;28;20135;-73
2023/03/22 13:11:27;;;;;;;11.05;4.53;;;;;;;;;;5063027;28;20389;-73
2023/03/22 13:13:53;;;;;;;7.75;4.00;;;;;;;;;;5050613;28;20025;-73
2023/03/22 13:16:21;;;;;;;13.60;5.10;;;;;;;;;;5051089;28;20025;-72
2023/03/22 13:18:47;;;;;;;10.50;4.07;;;;;;;;;;5052019;28;20507;-73
2023/03/22 13:21:15;;;;;;;8.77;4.40;;;;;;;;;;5036156;28;20079;-73
2023/03/22 13:24:00;;;;;;;11.68;4.20;;;;;;;;;;5053937;28;20081;-76
2023/03/22 13:26:45;;;;;;;14.20;4.38;;;;;;;;;;5034266;28;20337;-72
2023/03/22 13:29:35;;;;;;;11.57;4.85;;;;;;;;;;5054444;28;20082;-73
2023/03/22 13:32:03;;;;;;;9.23;3.97;;;;;;;;;;5034651;28;20036;-72
2023/03/22 13:34:38;;;;;;;13.88;4.60;;;;;;;;;;5054749;28;20037;-72
2023/03/22 13:37:29;;;;;;;11.25;4.32;;;;;;;;;;5041625;28;20059;-73
2023/03/22 13:40:00;;;;;;;20.67;4.72;;;;;;;;;;5033829;28;20671;-73
2023/03/22 13:42:32;;;;;;;14.07;5.00;;;;;;;;;;5038756;28;20421;-71
2023/03/22 13:45:02;;;;;;;9.85;4.63;;;;;;;;;;5042707;28;20025;-72
2023/03/22 13:47:28;;;;;;;13.68;5.97;;;;;;;;;;5049255;28;20382;-72
2023/03/22 13:49:58;;;;;;;14.02;4.38;;;;;;;;;;5051709;28;20350;-73
2023/03/22 13:52:28;;;;;;;17.65;6.18;;;;;;;;;;5038207;28;20112;-73
2023/03/22 13:54:56;;;;;;;18.85;6.18;;;;;;;;;;5050288;28;20086;-73
2023/03/22 13:57:44;;;;;;;22.27;5.15;;;;;;;;;;5035662;28;20032;-72
2023/03/22 14:00:43;;;;;;;16.00;4.80;;;;;;;;;;5041877;28;20510;-73
2023/03/22 14:03:20;;;;;;;17.02;5.82;;;;;;;;;;5014449;28;20392;-74
2023/03/22 14:05:48;;;;;;;12.15;5.60;;;;;;;;;;5040980;28;20047;-74
2023/03/22 14:08:23;;;;;;;12.32;4.65;;;;;;;;;;5054073;28;20075;-74
2023/03/22 14:10:54;;;;;;;9.70;4.80;;;;;;;;;;5039212;28;20049;-73
2023/03/22 14:13:36;;;;;;;13.68;5.38;;;;;;;;;;5056237;28;20609;-74
2023/03/22 14:16:05;;;;;;;11.85;5.53;;;;;;;;;;5039507;28;20025;-73
2023/03/22 14:18:33;;;;;;;12.88;4.68;;;;;;;;;;5040415;28;20029;-72
2023/03/22 14:21:00;;;;;;;9.57;5.78;;;;;;;;;;5059251;28;20094;-73
2023/03/22 14:23:30;;;;;;;11.30;5.07;;;;;;;;;;5034468;28;20036;-73
2023/03/22 14:25:59;;;;;;;7.50;4.30;;;;;;;;;;5048173;28;20405;-73
2023/03/22 14:28:34;;;;;;;14.20;6.53;;;;;;;;;;5065891;28;20385;-73
2023/03/22 14:31:00;;;;;;;22.77;5.93;;;;;;;;;;5064068;28;20124;-73
2023/03/22 14:33:29;;;;;;;11.70;5.65;;;;;;;;;;5050369;28;20029;-73
2023/03/22 14:35:57;;;;;;;17.48;7.35;;;;;;;;;;5050683;28;20032;-73
2023/03/22 14:38:26;;;;;;;11.65;6.75;;;;;;;;;;5068096;28;20025;-73
2023/03/22 14:41:05;;;;;;;11.73;4.90;;;;;;;;;;5046707;28;20370;-72
2023/03/22 14:43:31;;;;;;;10.15;4.57;;;;;;;;;;5050228;28;20372;-73
2023/03/22 14:46:21;;;;;;;12.52;6.20;;;;;;;;;;5049118;28;20029;-73